Map

Track Data

SID SEASON NUMBER BASIN SUBBASIN NAME ISO_TIME NATURE LAT LON WMO_WIND WMO_PRES WMO_AGENCY TRACK_TYPE DIST2LAND LANDFALL IFLAG USA_AGENCY USA_ATCF_ID USA_LAT USA_LON USA_RECORD USA_STATUS USA_WIND USA_PRES USA_SSHS USA_R34_NE USA_R34_SE USA_R34_SW USA_R34_NW USA_R50_NE USA_R50_SE USA_R50_SW USA_R50_NW USA_R64_NE USA_R64_SE USA_R64_SW USA_R64_NW USA_POCI USA_ROCI USA_RMW USA_EYE TOKYO_LAT TOKYO_LON TOKYO_GRADE TOKYO_WIND TOKYO_PRES TOKYO_R50_DIR TOKYO_R50_LONG TOKYO_R50_SHORT TOKYO_R30_DIR TOKYO_R30_LONG TOKYO_R30_SHORT TOKYO_LAND CMA_LAT CMA_LON CMA_CAT CMA_WIND CMA_PRES HKO_LAT HKO_LON HKO_CAT HKO_WIND HKO_PRES NEWDELHI_LAT NEWDELHI_LON NEWDELHI_GRADE NEWDELHI_WIND NEWDELHI_PRES NEWDELHI_CI NEWDELHI_DP NEWDELHI_POCI REUNION_LAT REUNION_LON REUNION_TYPE REUNION_WIND REUNION_PRES REUNION_TNUM REUNION_CI REUNION_RMW REUNION_R34_NE REUNION_R34_SE REUNION_R34_SW REUNION_R34_NW REUNION_R50_NE REUNION_R50_SE REUNION_R50_SW REUNION_R50_NW REUNION_R64_NE REUNION_R64_SE REUNION_R64_SW REUNION_R64_NW BOM_LAT BOM_LON BOM_TYPE BOM_WIND BOM_PRES BOM_TNUM BOM_CI BOM_RMW BOM_R34_NE BOM_R34_SE BOM_R34_SW BOM_R34_NW BOM_R50_NE BOM_R50_SE BOM_R50_SW BOM_R50_NW BOM_R64_NE BOM_R64_SE BOM_R64_SW BOM_R64_NW BOM_ROCI BOM_POCI BOM_EYE BOM_POS_METHOD BOM_PRES_METHOD NADI_LAT NADI_LON NADI_CAT NADI_WIND NADI_PRES WELLINGTON_LAT WELLINGTON_LON WELLINGTON_WIND WELLINGTON_PRES DS824_LAT DS824_LON DS824_STAGE DS824_WIND DS824_PRES TD9636_LAT TD9636_LON TD9636_STAGE TD9636_WIND TD9636_PRES TD9635_LAT TD9635_LON TD9635_WIND TD9635_PRES TD9635_ROCI NEUMANN_LAT NEUMANN_LON NEUMANN_CLASS NEUMANN_WIND NEUMANN_PRES MLC_LAT MLC_LON MLC_CLASS MLC_WIND MLC_PRES USA_GUST BOM_GUST BOM_GUST_PER REUNION_GUST REUNION_GUST_PER USA_SEAHGT USA_SEARAD_NE USA_SEARAD_SE USA_SEARAD_SW USA_SEARAD_NW STORM_SPEED STORM_DIR
1948252N36302 1948 60 NA NA NOT_NAMED 1948-09-07 12:00:00 ET 36.0000 -58.0000 40 hurdat_atl main 1040 1001 O_____________ hurdat_atl AL071948 36.0000 -58.0000 EX 40 -4 17 261
1948252N36302 1948 60 NA NA NOT_NAMED 1948-09-07 15:00:00 ET 35.8645 -59.0390 main 1001 968 P_____________ AL071948 35.8645 -59.0390 EX 42 -4 16 263
1948252N36302 1948 60 NA NA NOT_NAMED 1948-09-07 18:00:00 TS 35.8000 -60.0000 45 hurdat_atl main 968 928 O_____________ hurdat_atl AL071948 35.8000 -60.0000 TS 45 0 14 270
1948252N36302 1948 60 NA NA NOT_NAMED 1948-09-07 21:00:00 TS 35.8619 -60.8242 main 928 895 P_____________ AL071948 35.8619 -60.8242 TS 45 0 12 279
1948252N36302 1948 60 NA NA NOT_NAMED 1948-09-08 00:00:00 TS 36.0000 -61.5000 45 hurdat_atl main 895 870 O_____________ hurdat_atl AL071948 36.0000 -61.5000 TS 45 0 10 285
1948252N36302 1948 60 NA NA NOT_NAMED 1948-09-08 03:00:00 TS 36.1270 -62.0603 main 867 835 P_____________ AL071948 36.1270 -62.0603 TS 47 0 9 290
1948252N36302 1948 60 NA NA NOT_NAMED 1948-09-08 06:00:00 TS 36.3000 -62.5000 50 hurdat_atl main 835 805 O_____________ hurdat_atl AL071948 36.3000 -62.5000 TS 50 0 8 301
1948252N36302 1948 60 NA NA NOT_NAMED 1948-09-08 09:00:00 TS 36.5348 -62.8875 main 805 766 P_____________ AL071948 36.5348 -62.8875 TS 50 0 8 312
1948252N36302 1948 60 NA NA NOT_NAMED 1948-09-08 12:00:00 TS 36.8000 -63.2000 50 hurdat_atl main 766 739 O_____________ hurdat_atl AL071948 36.8000 -63.2000 TS 50 0 7 317
1948252N36302 1948 60 NA NA NOT_NAMED 1948-09-08 15:00:00 TS 37.0424 -63.4802 main 739 702 P_____________ AL071948 37.0424 -63.4802 TS 52 0 6 321
1948252N36302 1948 60 NA NA NOT_NAMED 1948-09-08 18:00:00 TS 37.3000 -63.7000 55 hurdat_atl main 702 666 O_____________ hurdat_atl AL071948 37.3000 -63.7000 TS 55 0 6 330
1948252N36302 1948 60 NA NA NOT_NAMED 1948-09-08 21:00:00 TS 37.5925 -63.8875 main 666 632 P_____________ AL071948 37.5925 -63.8875 TS 55 0 6 338
1948252N36302 1948 60 NA NA NOT_NAMED 1948-09-09 00:00:00 TS 37.9000 -64.0000 55 hurdat_atl main 632 599 O_____________ hurdat_atl AL071948 37.9000 -64.0000 TS 55 0 6 349
1948252N36302 1948 60 NA NA NOT_NAMED 1948-09-09 03:00:00 TS 38.2000 -64.0302 main 599 566 P_____________ AL071948 38.2000 -64.0302 TS 52 0 6 0
1948252N36302 1948 60 NA NA NOT_NAMED 1948-09-09 06:00:00 TS 38.5000 -64.0000 50 hurdat_atl main 566 534 O_____________ hurdat_atl AL071948 38.5000 -64.0000 TS 50 0 6 5
1948252N36302 1948 60 NA NA NOT_NAMED 1948-09-09 09:00:00 TS 38.7699 -63.9869 main 534 503 P_____________ AL071948 38.7699 -63.9869 TS 47 0 6 8
1948252N36302 1948 60 NA NA NOT_NAMED 1948-09-09 12:00:00 TS 39.1000 -63.9000 45 hurdat_atl main 503 462 O_____________ hurdat_atl AL071948 39.1000 -63.9000 TS 45 0 8 15
1948252N36302 1948 60 NA NA NOT_NAMED 1948-09-09 15:00:00 TS 39.5547 -63.7241 main 453 409 P_____________ AL071948 39.5547 -63.7241 TS 45 0 11 21
1948252N36302 1948 60 NA NA NOT_NAMED 1948-09-09 18:00:00 TS 40.1000 -63.4000 45 hurdat_atl main 409 368 O_____________ hurdat_atl AL071948 40.1000 -63.4000 TS 45 0 13 29
1948252N36302 1948 60 NA NA NOT_NAMED 1948-09-09 21:00:00 TS 40.6850 -62.9100 main 368 344 P_____________ AL071948 40.6850 -62.9100 TS 42 0 15 35
1948252N36302 1948 60 NA NA NOT_NAMED 1948-09-10 00:00:00 ET 41.3000 -62.3000 40 hurdat_atl main 344 320 O_____________ hurdat_atl AL071948 41.3000 -62.3000 EX 40 -4 15 36
1948252N36302 1948 60 NA NA NOT_NAMED 1948-09-10 03:00:00 ET 41.8754 -61.7503 main 313 279 P_____________ AL071948 41.8754 -61.7503 EX 40 -4 15 39
1948252N36302 1948 60 NA NA NOT_NAMED 1948-09-10 06:00:00 ET 42.5000 -61.0000 40 hurdat_atl main 282 246 O_____________ hurdat_atl AL071948 42.5000 -61.0000 EX 40 -4 19 46
1948252N36302 1948 60 NA NA NOT_NAMED 1948-09-10 09:00:00 ET 43.1885 -59.9097 main 241 227 P_____________ AL071948 43.1885 -59.9097 EX 40 -4 24 51
1948252N36302 1948 60 NA NA NOT_NAMED 1948-09-10 12:00:00 ET 44.0000 -58.5000 40 hurdat_atl main 232 228 O_____________ hurdat_atl AL071948 44.0000 -58.5000 EX 40 -4 28 51
1948252N36302 1948 60 NA NA NOT_NAMED 1948-09-10 15:00:00 ET 44.9638 -56.8359 main 217 107 P_____________ AL071948 44.9638 -56.8359 EX 37 -4 32 51
1948252N36302 1948 60 NA NA NOT_NAMED 1948-09-10 18:00:00 ET 46.0000 -55.0000 35 hurdat_atl main 103 O_____________ hurdat_atl AL071948 46.0000 -55.0000 EX 35 -4 33 51

About IBTrACS Database

This database is a web-friendly format of International Best Track Archive for Climate Stewardship (IBTrACS), a global best track data archive curated by NOAA dating back to 1842.

Updated: 2021-10-27